createdAt,value
2018-07-28T00:01:46.419Z,64.50
2018-07-28T00:04:30.949Z,64.40
2018-07-28T00:07:03.802Z,64.60
2018-07-28T00:09:36.893Z,64.90
2018-07-28T00:14:44.574Z,65.00
2018-07-28T00:17:37.767Z,65.00
2018-07-28T00:20:12.020Z,65.00
2018-07-28T00:22:49.445Z,65.10
2018-07-28T00:25:20.681Z,65.10
2018-07-28T00:27:55.300Z,65.20
2018-07-28T00:30:35.048Z,65.30
2018-07-28T00:33:11.449Z,65.40
2018-07-28T00:35:52.667Z,65.50
2018-07-28T00:38:24.523Z,65.50
2018-07-28T00:40:57.831Z,65.70
2018-07-28T00:43:44.065Z,66.00
2018-07-28T00:46:17.867Z,66.00
2018-07-28T00:48:56.910Z,66.10
2018-07-28T00:51:28.882Z,66.10
2018-07-28T00:54:01.745Z,66.00
2018-07-28T00:56:33.835Z,66.00
2018-07-28T00:59:05.736Z,65.90
2018-07-28T01:01:38.676Z,66.00
2018-07-28T01:04:09.657Z,66.40
2018-07-28T01:06:40.602Z,66.60
2018-07-28T01:09:13.359Z,66.60
2018-07-28T01:11:45.246Z,66.70
2018-07-28T01:14:16.193Z,66.80
2018-07-28T01:19:18.410Z,66.60
2018-07-28T01:21:52.873Z,66.80
2018-07-28T01:24:26.268Z,67.00
2018-07-28T01:27:00.998Z,67.40
2018-07-28T01:29:34.315Z,67.50
2018-07-28T01:32:08.938Z,67.60
2018-07-28T01:34:42.720Z,67.70
2018-07-28T01:37:20.907Z,67.80
2018-07-28T01:39:51.648Z,68.30
2018-07-28T01:42:32.976Z,68.50
2018-07-28T01:45:16.306Z,68.70
2018-07-28T01:47:51.885Z,69.20
2018-07-28T01:50:34.977Z,69.50
2018-07-28T01:53:10.312Z,69.80
2018-07-28T01:55:47.890Z,70.10
2018-07-28T01:58:29.048Z,70.50
2018-07-28T02:01:02.149Z,71.20
2018-07-28T02:03:34.642Z,71.70
2018-07-28T02:06:13.348Z,72.00
2018-07-28T02:08:55.039Z,72.10
2018-07-28T02:16:41.728Z,72.20
2018-07-28T02:19:28.183Z,72.20
2018-07-28T02:22:19.092Z,72.40
2018-07-28T02:24:58.149Z,72.70
2018-07-28T02:27:33.156Z,72.30
2018-07-28T02:30:10.382Z,72.60
2018-07-28T02:32:48.984Z,72.90
2018-07-28T02:35:25.050Z,72.90
2018-07-28T02:37:59.603Z,73.30
2018-07-28T02:40:32.460Z,73.30
2018-07-28T02:43:18.476Z,73.00
2018-07-28T02:45:51.960Z,73.20
2018-07-28T02:48:36.235Z,73.70
2018-07-28T02:51:17.584Z,73.80
2018-07-28T02:53:52.225Z,73.70
2018-07-28T02:56:25.748Z,73.70
2018-07-28T02:59:02.705Z,74.00
2018-07-28T03:01:41.264Z,73.70
2018-07-28T03:04:13.177Z,73.20
2018-07-28T03:06:45.549Z,74.20
2018-07-28T03:09:17.228Z,74.40
2018-07-28T03:11:48.994Z,74.50
2018-07-28T03:14:21.457Z,74.50
2018-07-28T03:16:55.974Z,74.90
2018-07-28T03:19:31.954Z,75.20
2018-07-28T03:22:15.581Z,75.40
2018-07-28T03:24:48.053Z,75.60
2018-07-28T03:27:29.130Z,76.20
2018-07-28T03:30:12.603Z,76.50
2018-07-28T03:32:45.862Z,76.70
2018-07-28T03:35:26.335Z,76.80
2018-07-28T03:38:03.169Z,77.20
2018-07-28T03:40:34.791Z,77.40
2018-07-28T03:43:10.039Z,77.70
2018-07-28T03:45:59.656Z,78.20
2018-07-28T03:48:35.430Z,78.30
2018-07-28T03:51:07.773Z,78.50
2018-07-28T03:53:48.799Z,78.30
2018-07-28T03:56:20.713Z,78.50
2018-07-28T03:58:55.982Z,78.60
2018-07-28T04:01:32.061Z,78.80
2018-07-28T04:04:05.321Z,79.00
2018-07-28T04:06:49.524Z,79.50
2018-07-28T04:09:25.315Z,79.50
2018-07-28T04:12:00.382Z,79.50
2018-07-28T04:14:37.240Z,79.40
2018-07-28T04:17:18.171Z,79.20
2018-07-28T04:19:57.878Z,79.20
2018-07-28T04:22:30.643Z,79.50
2018-07-28T04:25:05.672Z,79.20
2018-07-28T04:27:40.954Z,79.20
2018-07-28T04:30:13.379Z,79.20
2018-07-28T04:32:45.359Z,79.20
2018-07-28T04:35:22.828Z,78.80
2018-07-28T04:37:58.344Z,79.30
2018-07-28T04:43:08.346Z,79.70
2018-07-28T04:45:44.278Z,80.00
2018-07-28T04:48:16.486Z,80.00
2018-07-28T04:50:54.552Z,79.80
2018-07-28T04:53:27.007Z,79.70
2018-07-28T04:55:59.317Z,80.10
2018-07-28T04:58:34.588Z,80.00
2018-07-28T05:01:11.466Z,79.90
2018-07-28T05:03:48.047Z,79.90
2018-07-28T05:06:23.782Z,79.60
2018-07-28T05:08:55.787Z,79.20
2018-07-28T05:11:31.424Z,79.00
2018-07-28T05:14:11.607Z,78.30
2018-07-28T05:16:43.824Z,77.50
2018-07-28T05:19:17.945Z,77.40
2018-07-28T05:21:51.197Z,77.10
2018-07-28T05:27:02.093Z,76.00
2018-07-28T05:29:45.281Z,75.60
2018-07-28T05:32:22.418Z,75.30
2018-07-28T05:34:55.701Z,75.10
2018-07-28T05:37:28.265Z,74.80
2018-07-28T05:40:00.047Z,74.50
2018-07-28T05:42:35.250Z,74.40
2018-07-28T05:45:07.694Z,74.50
2018-07-28T05:47:38.681Z,74.40
2018-07-28T05:50:12.659Z,75.00
2018-07-28T05:52:50.289Z,75.10
2018-07-28T05:55:27.184Z,75.00
2018-07-28T05:58:03.224Z,75.40
2018-07-28T06:00:41.335Z,76.10
2018-07-28T06:03:17.058Z,76.80
2018-07-28T06:05:50.747Z,77.50
2018-07-28T06:08:27.013Z,77.70
2018-07-28T06:10:58.738Z,77.60
2018-07-28T06:13:36.839Z,77.60
2018-07-28T06:16:11.980Z,77.30
2018-07-28T06:18:43.310Z,77.40
2018-07-28T06:21:22.452Z,77.40
2018-07-28T06:23:54.891Z,77.20
2018-07-28T06:26:33.502Z,77.30
2018-07-28T06:29:04.199Z,77.50
2018-07-28T06:31:43.535Z,79.20
2018-07-28T06:34:14.889Z,81.00
2018-07-28T06:36:49.993Z,83.00
2018-07-28T06:39:25.533Z,84.30
2018-07-28T06:41:59.479Z,85.70
2018-07-28T06:44:30.704Z,88.20
2018-07-28T06:47:03.283Z,88.90
2018-07-28T06:49:39.084Z,89.80
2018-07-28T06:52:10.884Z,90.40
2018-07-28T06:54:46.902Z,89.70
2018-07-28T06:57:23.802Z,91.90
2018-07-28T07:00:03.782Z,92.30
2018-07-28T07:02:35.870Z,92.10
2018-07-28T07:05:09.751Z,92.20
2018-07-28T07:07:44.996Z,92.10
2018-07-28T07:10:20.462Z,91.10
2018-07-28T07:12:55.503Z,92.30
2018-07-28T07:15:34.159Z,91.40
2018-07-28T07:18:08.146Z,89.80
2018-07-28T07:20:41.107Z,88.90
2018-07-28T07:23:16.431Z,87.80
2018-07-28T07:25:50.328Z,88.50
2018-07-28T07:28:27.182Z,88.00
2018-07-28T07:31:03.339Z,87.50
2018-07-28T07:33:33.632Z,88.00
2018-07-28T07:36:04.329Z,88.20
2018-07-28T07:38:40.461Z,87.50
2018-07-28T07:41:11.867Z,86.30
2018-07-28T07:43:49.179Z,87.10
2018-07-28T07:46:22.711Z,86.70
2018-07-28T07:48:53.181Z,84.60
2018-07-28T07:51:30.337Z,84.80
2018-07-28T07:54:05.807Z,85.10
2018-07-28T07:56:37.276Z,85.20
2018-07-28T08:01:54.030Z,84.00
2018-07-28T08:04:24.693Z,82.80
2018-07-28T08:06:55.121Z,82.40
2018-07-28T08:09:25.874Z,81.50
2018-07-28T08:11:56.571Z,80.70
2018-07-28T08:14:37.118Z,80.80
2018-07-28T08:17:12.318Z,80.80
2018-07-28T08:19:46.964Z,80.90
2018-07-28T08:22:26.176Z,79.70
2018-07-28T08:24:59.635Z,79.50
2018-07-28T08:27:30.368Z,79.40
2018-07-28T08:30:06.518Z,79.30
2018-07-28T08:32:40.963Z,79.90
2018-07-28T08:35:19.562Z,79.20
2018-07-28T08:37:49.877Z,80.40
2018-07-28T08:40:26.240Z,80.40
2018-07-28T08:43:01.619Z,81.50
2018-07-28T08:45:33.413Z,81.10
2018-07-28T08:48:06.582Z,80.90
2018-07-28T08:50:37.682Z,80.90
2018-07-28T08:53:10.556Z,80.30
2018-07-28T08:55:42.114Z,79.50
2018-07-28T08:58:16.111Z,79.60
2018-07-28T09:00:49.635Z,79.80
2018-07-28T09:03:26.549Z,79.00
2018-07-28T09:05:57.358Z,78.20
2018-07-28T09:08:32.978Z,78.10
2018-07-28T09:11:05.159Z,78.20
2018-07-28T09:13:43.368Z,77.50
2018-07-28T09:16:19.172Z,77.30
2018-07-28T09:18:52.832Z,77.10
2018-07-28T09:21:25.009Z,77.50
2018-07-28T09:23:59.427Z,76.20
2018-07-28T09:26:35.028Z,76.50
2018-07-28T09:29:14.157Z,77.10
2018-07-28T09:31:51.541Z,77.10
2018-07-28T09:34:42.076Z,77.30
2018-07-28T09:40:09.720Z,76.40
2018-07-28T09:42:42.565Z,74.90
2018-07-28T09:45:14.156Z,73.80
2018-07-28T09:47:44.431Z,72.90
2018-07-28T09:50:17.991Z,72.10
2018-07-28T09:52:48.212Z,71.90
2018-07-28T09:55:26.669Z,71.30
2018-07-28T09:58:05.607Z,70.40
2018-07-28T10:01:05.023Z,70.80
2018-07-28T10:03:37.813Z,71.70
2018-07-28T10:06:13.568Z,71.00
2018-07-28T10:08:45.896Z,71.60
2018-07-28T10:11:17.277Z,71.20
2018-07-28T10:13:48.237Z,71.80
2018-07-28T10:16:24.474Z,73.30
2018-07-28T10:18:57.737Z,74.00
2018-07-28T10:21:30.433Z,72.70
2018-07-28T10:24:02.600Z,72.90
2018-07-28T10:26:35.862Z,72.20
2018-07-28T10:29:11.831Z,71.50
2018-07-28T10:31:47.369Z,70.50
2018-07-28T10:34:25.539Z,69.20
2018-07-28T10:36:56.684Z,69.20
2018-07-28T10:39:31.689Z,68.60
2018-07-28T10:42:03.582Z,68.80
2018-07-28T10:44:35.183Z,68.50
2018-07-28T10:47:10.249Z,68.90
2018-07-28T10:49:42.821Z,68.90
2018-07-28T10:52:14.716Z,67.90
2018-07-28T10:54:51.906Z,66.50
2018-07-28T10:57:24.507Z,66.10
2018-07-28T11:00:00.200Z,64.90
2018-07-28T11:02:32.400Z,63.00
2018-07-28T11:05:05.592Z,61.90
2018-07-28T11:07:43.200Z,61.10
2018-07-28T11:10:14.766Z,59.90
2018-07-28T11:12:53.608Z,60.10
2018-07-28T11:15:27.791Z,60.90
2018-07-28T11:18:06.735Z,61.10
2018-07-28T11:20:40.466Z,60.90
2018-07-28T11:23:14.725Z,59.50
2018-07-28T11:28:53.764Z,60.50
2018-07-28T11:31:38.524Z,59.90
2018-07-28T11:34:20.515Z,59.20
2018-07-28T11:37:04.226Z,57.80
2018-07-28T11:39:50.370Z,57.70
2018-07-28T11:42:30.909Z,58.90
2018-07-28T11:45:07.864Z,59.10
2018-07-28T11:47:45.027Z,57.50
2018-07-28T11:50:16.058Z,57.80
2018-07-28T11:52:47.482Z,58.90
2018-07-28T11:55:20.186Z,60.10
2018-07-28T11:57:59.319Z,61.20
2018-07-28T12:00:30.286Z,61.70
2018-07-28T12:03:01.532Z,62.40
2018-07-28T12:05:36.831Z,62.20
2018-07-28T12:10:40.564Z,57.80
2018-07-28T12:13:11.986Z,56.70
2018-07-28T12:15:43.371Z,56.90
2018-07-28T12:18:26.451Z,56.40
2018-07-28T12:20:58.867Z,56.40
2018-07-28T12:23:28.180Z,55.70
2018-07-28T12:26:12.485Z,55.10
2018-07-28T12:28:48.244Z,55.40
2018-07-28T12:31:24.684Z,56.70
2018-07-28T12:33:56.870Z,57.70
2018-07-28T12:36:35.521Z,59.10
2018-07-28T12:39:10.725Z,60.00
2018-07-28T12:41:43.542Z,60.30
2018-07-28T12:44:15.203Z,59.10
2018-07-28T12:46:49.126Z,59.20
2018-07-28T12:49:20.864Z,58.80
2018-07-28T12:51:56.623Z,58.20
2018-07-28T12:54:33.189Z,57.10
2018-07-28T12:57:04.061Z,56.10
2018-07-28T12:59:36.111Z,55.40
2018-07-28T13:02:15.688Z,55.40
2018-07-28T13:04:46.713Z,54.90
2018-07-28T13:07:17.525Z,55.20
2018-07-28T13:10:01.442Z,55.90
2018-07-28T13:12:33.832Z,57.50
2018-07-28T13:15:04.736Z,58.20
2018-07-28T13:17:41.677Z,58.60
2018-07-28T13:20:15.385Z,58.70
2018-07-28T13:22:48.342Z,57.70
2018-07-28T13:25:29.870Z,58.40
2018-07-28T13:28:05.433Z,57.60
2018-07-28T13:33:24.646Z,53.80
2018-07-28T13:36:00.847Z,55.00
2018-07-28T13:38:39.450Z,56.90
2018-07-28T13:41:11.652Z,57.70
2018-07-28T13:43:43.675Z,59.10
2018-07-28T13:46:17.322Z,59.60
2018-07-28T13:48:50.337Z,58.20
2018-07-28T13:51:26.912Z,56.40
2018-07-28T13:53:59.272Z,54.60
2018-07-28T13:56:38.159Z,53.60
2018-07-28T13:59:11.879Z,54.60
2018-07-28T14:01:46.460Z,56.40
2018-07-28T14:04:23.118Z,57.50
2018-07-28T14:06:58.367Z,58.00
2018-07-28T14:09:31.966Z,58.90
2018-07-28T14:12:05.149Z,59.10
2018-07-28T14:14:41.063Z,59.20
2018-07-28T14:17:21.372Z,59.50
2018-07-28T14:20:00.752Z,58.50
2018-07-28T14:22:41.446Z,56.70
2018-07-28T14:31:02.138Z,54.90
2018-07-28T14:33:36.575Z,54.50
2018-07-28T14:36:08.927Z,55.90
2018-07-28T14:38:41.289Z,56.10
2018-07-28T14:41:16.824Z,54.60
2018-07-28T14:43:57.646Z,55.20
2018-07-28T14:46:31.597Z,56.00
2018-07-28T14:49:10.510Z,58.20
2018-07-28T14:51:44.336Z,59.10
2018-07-28T14:54:18.468Z,58.60
2018-07-28T14:56:57.727Z,58.50
2018-07-28T14:59:31.930Z,59.40
2018-07-28T15:02:05.589Z,59.70
2018-07-28T15:04:40.314Z,60.40
2018-07-28T15:07:16.914Z,59.60
2018-07-28T15:09:51.951Z,59.20
2018-07-28T15:12:26.960Z,60.10
2018-07-28T15:15:01.714Z,61.50
2018-07-28T15:17:34.795Z,61.10
2018-07-28T15:20:11.581Z,61.80
2018-07-28T15:22:59.778Z,62.20
2018-07-28T15:25:38.420Z,62.20
2018-07-28T15:28:12.267Z,62.60
2018-07-28T15:30:47.050Z,62.40
2018-07-28T15:33:21.840Z,62.20
2018-07-28T15:35:55.049Z,60.80
2018-07-28T15:38:29.512Z,60.60
2018-07-28T15:44:06.001Z,60.70
2018-07-28T15:46:43.487Z,61.00
2018-07-28T15:49:25.149Z,61.10
2018-07-28T15:51:58.941Z,60.60
2018-07-28T15:54:44.950Z,60.90
2018-07-28T15:57:17.898Z,61.20
2018-07-28T15:59:53.269Z,61.10
2018-07-28T16:02:32.082Z,60.80
2018-07-28T16:05:12.702Z,60.70
2018-07-28T16:07:48.148Z,61.00
2018-07-28T16:10:27.920Z,61.00
2018-07-28T16:13:03.121Z,60.80
2018-07-28T16:15:37.467Z,60.70
2018-07-28T16:18:11.677Z,60.70
2018-07-28T16:20:55.120Z,60.90
2018-07-28T16:23:34.793Z,61.10
2018-07-28T16:26:11.765Z,62.20
2018-07-28T16:28:49.233Z,63.40
2018-07-28T16:31:30.272Z,64.20
2018-07-28T16:34:13.402Z,63.80
2018-07-28T16:36:50.755Z,62.90
2018-07-28T16:39:29.583Z,63.30
2018-07-28T16:42:07.221Z,63.80
2018-07-28T16:44:49.020Z,64.30
2018-07-28T16:47:25.133Z,65.40
2018-07-28T16:50:06.712Z,65.60
2018-07-28T16:52:41.594Z,66.00
2018-07-28T16:55:23.278Z,66.50
2018-07-28T16:58:11.814Z,66.70
2018-07-28T17:00:57.079Z,67.00
2018-07-28T17:03:31.152Z,67.20
2018-07-28T17:06:17.520Z,67.10
2018-07-28T17:08:51.405Z,67.30
2018-07-28T17:11:26.022Z,67.30
2018-07-28T17:13:58.653Z,67.00
2018-07-28T17:16:32.599Z,67.20
2018-07-28T17:19:10.494Z,67.10
2018-07-28T17:21:45.416Z,66.70
2018-07-28T17:24:22.324Z,66.70
2018-07-28T17:27:00.378Z,66.20
2018-07-28T17:29:40.745Z,64.00
2018-07-28T17:32:13.676Z,62.90
2018-07-28T17:34:47.889Z,62.70
2018-07-28T17:37:27.584Z,63.40
2018-07-28T17:40:06.004Z,63.90
2018-07-28T17:43:01.063Z,63.70
2018-07-28T17:45:34.514Z,62.20
2018-07-28T17:48:09.490Z,61.20
2018-07-28T17:50:46.895Z,60.70
2018-07-28T17:53:20.243Z,61.10
2018-07-28T17:55:55.313Z,61.70
2018-07-28T17:58:28.664Z,62.10
2018-07-28T18:01:03.492Z,62.30
2018-07-28T18:03:35.876Z,62.70
2018-07-28T18:06:13.080Z,63.20
2018-07-28T18:08:53.718Z,63.30
2018-07-28T18:11:26.876Z,63.70
2018-07-28T18:14:04.819Z,63.90
2018-07-28T18:16:39.038Z,62.80
2018-07-28T18:19:13.821Z,62.70
2018-07-28T18:21:50.799Z,62.30
2018-07-28T18:24:27.197Z,62.70
2018-07-28T18:27:01.005Z,62.40
2018-07-28T18:29:40.414Z,62.40
2018-07-28T18:32:14.756Z,62.80
2018-07-28T18:34:48.970Z,63.40
2018-07-28T18:37:26.154Z,63.80
2018-07-28T18:40:03.151Z,63.90
2018-07-28T18:42:40.294Z,64.10
2018-07-28T18:45:14.716Z,63.80
2018-07-28T18:50:51.961Z,64.00
2018-07-28T18:53:31.671Z,64.20
2018-07-28T18:56:11.246Z,64.10
2018-07-28T18:58:51.598Z,64.30
2018-07-28T19:01:30.971Z,64.20
2018-07-28T19:06:45.592Z,64.40
2018-07-28T19:09:28.781Z,64.50
2018-07-28T19:12:05.414Z,64.90
2018-07-28T19:14:51.249Z,65.10
2018-07-28T19:17:37.498Z,64.50
2018-07-28T19:20:16.585Z,64.80
2018-07-28T19:23:01.986Z,64.80
2018-07-28T19:25:36.010Z,64.50
2018-07-28T19:28:14.761Z,64.60
2018-07-28T19:30:48.602Z,64.80
2018-07-28T19:33:25.208Z,64.60
2018-07-28T19:36:04.211Z,64.90
2018-07-28T19:38:39.703Z,65.10
2018-07-28T19:41:14.720Z,65.30
2018-07-28T19:43:47.846Z,65.20
2018-07-28T19:46:25.383Z,65.30
2018-07-28T19:49:01.899Z,65.40
2018-07-28T19:51:54.730Z,65.50
2018-07-28T19:54:28.527Z,65.70
2018-07-28T19:57:07.491Z,66.00
2018-07-28T19:59:47.757Z,66.20
2018-07-28T20:02:35.859Z,66.40
2018-07-28T20:05:15.412Z,66.00
2018-07-28T20:08:01.020Z,65.70
2018-07-28T20:10:45.002Z,66.10
2018-07-28T20:13:19.266Z,66.20
2018-07-28T20:19:07.668Z,67.00
2018-07-28T20:21:43.743Z,67.60
2018-07-28T20:24:21.791Z,67.90
2018-07-28T20:26:58.877Z,68.40
2018-07-28T20:29:39.235Z,69.30
2018-07-28T20:32:25.179Z,69.90
2018-07-28T20:34:57.364Z,70.70
2018-07-28T20:40:05.763Z,71.60
2018-07-28T20:42:42.762Z,71.70
2018-07-28T20:48:12.010Z,70.90
2018-07-28T20:50:44.656Z,70.80
2018-07-28T20:53:24.423Z,70.90
2018-07-28T20:56:08.845Z,71.20
2018-07-28T20:58:45.754Z,71.80
2018-07-28T21:01:26.742Z,73.00
2018-07-28T21:04:05.625Z,74.10
2018-07-28T21:06:41.506Z,74.80
2018-07-28T21:09:20.060Z,75.00
2018-07-28T21:11:53.719Z,75.20
2018-07-28T21:14:31.705Z,75.40
2018-07-28T21:17:07.339Z,75.60
2018-07-28T21:22:34.808Z,76.00
2018-07-28T21:25:14.916Z,75.70
2018-07-28T21:27:48.470Z,75.70
2018-07-28T21:31:30.820Z,75.50
2018-07-28T21:34:04.273Z,76.00
2018-07-28T21:36:35.724Z,76.50
2018-07-28T21:39:16.594Z,77.10
2018-07-28T21:41:50.923Z,77.40
2018-07-28T21:44:22.806Z,76.20
2018-07-28T21:46:56.584Z,75.20
2018-07-28T21:49:31.391Z,74.60
2018-07-28T21:52:03.948Z,74.10
2018-07-28T21:54:34.968Z,73.80
2018-07-28T21:57:11.853Z,73.30
2018-07-28T21:59:47.992Z,72.70
2018-07-28T22:02:26.395Z,72.40
2018-07-28T22:04:58.269Z,72.70
2018-07-28T22:07:30.486Z,72.90
2018-07-28T22:10:03.191Z,73.70
2018-07-28T22:12:34.440Z,73.80
2018-07-28T22:15:06.657Z,74.50
2018-07-28T22:17:39.808Z,74.60
2018-07-28T22:20:14.069Z,74.90
2018-07-28T22:22:45.147Z,74.80
2018-07-28T22:25:18.507Z,74.80
2018-07-28T22:27:50.334Z,74.40
2018-07-28T22:30:28.183Z,73.70
2018-07-28T22:32:59.715Z,73.40
2018-07-28T22:35:31.915Z,73.20
2018-07-28T22:38:08.526Z,73.10
2018-07-28T22:40:47.288Z,73.20
2018-07-28T22:43:26.630Z,73.50
2018-07-28T22:45:58.452Z,73.90
2018-07-28T22:48:31.120Z,74.50
2018-07-28T22:51:02.549Z,75.00
2018-07-28T22:53:38.132Z,75.30
2018-07-28T22:56:10.240Z,75.60
2018-07-28T22:58:41.380Z,76.10
2018-07-28T23:01:21.524Z,76.50
2018-07-28T23:03:52.914Z,77.20
2018-07-28T23:06:28.863Z,77.50
2018-07-28T23:09:00.088Z,77.80
2018-07-28T23:11:36.482Z,78.10
2018-07-28T23:14:12.339Z,78.20
2018-07-28T23:16:48.163Z,78.50
2018-07-28T23:19:20.939Z,78.70
2018-07-28T23:21:53.121Z,79.00
2018-07-28T23:24:25.715Z,78.20
2018-07-28T23:26:59.500Z,77.90
2018-07-28T23:29:35.696Z,78.10
2018-07-28T23:32:09.598Z,78.60
2018-07-28T23:34:42.218Z,79.20
2018-07-28T23:37:14.515Z,79.30
2018-07-28T23:39:46.022Z,79.60
2018-07-28T23:42:18.083Z,79.60
2018-07-28T23:44:49.196Z,79.60
2018-07-28T23:47:21.130Z,80.30
2018-07-28T23:49:52.680Z,80.50
2018-07-28T23:52:24.585Z,80.80
2018-07-28T23:54:57.511Z,81.00
2018-07-28T23:57:33.027Z,81.10
